KSVC/SVC METAR and TAF weather

Enter ICAO airport designator
Station Type Date Time Source
KSVC METAR 2019/08/25 06:55 UTC NOAA

KSVC 250655Z AUTO 34008KT 10SM CLR 21/12 A3017 RMK AO2 T02090115 403240142


Station Type Date Time Source
KSVC Decoded METAR 2019/08/25 06:55 UTC NOAA

Station name not available
Aug 25, 2019 - 02:55 AM EDT / 2019.08.25 0655 UTC
Wind: from the NNW (340 degrees) at 9 MPH (8 KT):0
Visibility: 10 mile(s):0
Sky conditions: clear
Temperature: 69.6 F (20.9 C)
Dew Point: 52.7 F (11.5 C)
Relative Humidity: 54%
Pressure (altimeter): 30.17 in. Hg (1021 hPa)
ob: KSVC 250655Z AUTO 34008KT 10SM CLR 21/12 A3017 RMK AO2 T02090115 403240142
cycle: 7

Station Type Date Time Source
KSVC TAF UTC NOAA

Error!

Example: see airport list